Spaceon02064 — ASD — position and weather

sailwx.info

Track history (hours):
 
Tides and Currents Weather Stations Pressure Air Temp Water Temp Dewpoint Dewpoint Depression Visibility Wind Speed Wind Dir Waves Ship Positions

Spaceon02064

Last reported at 2015-Apr-17 03:33 UTC. Time now 2015-Apr-18 08:45 UTC.
Position N 30°59' E 121°22'.

Length 6 m.

Type: Ship. MMSI: 200902064.

Date/timePositionNaut miles runAvg speedWind from/ knotsBaromVisibWave heightAir tempDewpointWater temp
2015-Apr-17 03:33N 30°59' E 121°22'39717.2
2015-Apr-16 04:32N 24°47' E 118°46'10 9.6
2015-Apr-16 03:28N 24°47' E 118°57'43021.5
2015-Apr-15 07:30N 31°37' E 121°25'0 0.0
2015-Apr-15 06:33N 31°37' E 121°25'0 0.0
2015-Apr-15 05:34N 31°37' E 121°25'0 0.0
2015-Apr-15 04:34N 31°37' E 121°25'385092.9
2015-Apr-15 04:33N 30°59' E 121°20'3836.0
2015-Apr-15 03:29N 31°37' E 121°25'0 0.0
2015-Apr-15 02:31N 31°37' E 121°25'2976.2
2015-Apr-15 02:08N 31°08' E 121°27'2949.4
2015-Apr-15 01:33N 31°37' E 121°25'0 0.0
2015-Apr-15 00:33N 31°37' E 121°25'22 2.4
2015-Apr-14 15:34N 31°22' E 121°43'0 0.0
2015-Apr-14 14:34N 31°22' E 121°43'0 0.0
2015-Apr-14 13:33N 31°22' E 121°43'0 0.0
2015-Apr-14 12:34N 31°22' E 121°43'0 0.0
2015-Apr-14 11:33N 31°22' E 121°43'0 0.0
2015-Apr-14 10:34N 31°22' E 121°43'22159.5
2015-Apr-14 10:25N 31°37' E 121°25'2225.4
2015-Apr-14 09:34N 31°22' E 121°43'22751.9
2015-Apr-14 09:32N 31°37' E 121°25'2222.5
2015-Apr-14 08:33N 31°22' E 121°43'22626.5
2015-Apr-14 08:31N 31°37' E 121°25'2222.7
2015-Apr-14 07:33N 31°22' E 121°43'2271.1
2015-Apr-14 07:15N 31°37' E 121°25'2231.6
2015-Apr-14 06:34N 31°22' E 121°43'22577.1
2015-Apr-14 06:31N 31°37' E 121°25'2222.7
2015-Apr-14 05:34N 31°22' E 121°43'22112.9
2015-Apr-14 05:22N 31°37' E 121°25'2227.0
2015-Apr-14 04:34N 31°22' E 121°43'0 0.0
2015-Apr-14 03:34N 31°22' E 121°43'135313.7
2015-Apr-14 03:33N 31°10' E 121°51'35409.0
2015-Apr-14 03:28N 31°37' E 121°25'2223.9
2015-Apr-14 02:34N 31°22' E 121°43'222308.4
2015-Apr-14 02:33N 31°37' E 121°25'2221.9
2015-Apr-14 01:33N 31°22' E 121°43'22545.1
2015-Apr-14 01:31N 31°37' E 121°25'2222.8
2015-Apr-14 00:34N 31°22' E 121°43'221046.5
2015-Apr-14 00:32N 31°37' E 121°25'2222.2
2015-Apr-13 23:33N 31°22' E 121°43'221744.2
2015-Apr-13 23:33N 31°37' E 121°25'2222.1
2015-Apr-13 22:33N 31°22' E 121°43'2215697.5
2015-Apr-13 22:33N 31°37' E 121°25'2221.9
2015-Apr-13 21:34N 31°22' E 121°43'0 0.0
2015-Apr-13 20:34N 31°22' E 121°43'0 0.0
2015-Apr-13 19:33N 31°22' E 121°43'0 0.0
2015-Apr-13 18:34N 31°22' E 121°43'0 0.0
2015-Apr-13 17:34N 31°22' E 121°43'0 0.0
2015-Apr-13 16:33N 31°22' E 121°43'0 0.0
2015-Apr-13 15:33N 31°22' E 121°43'0 0.0
2015-Apr-13 14:33N 31°22' E 121°43'0 0.0
2015-Apr-13 13:34N 31°22' E 121°43'0 0.0
2015-Apr-13 12:34N 31°22' E 121°43'0 0.0
2015-Apr-13 11:33N 31°22' E 121°43'0 0.0
2015-Apr-13 10:33N 31°22' E 121°43'0 0.0
2015-Apr-13 09:33N 31°22' E 121°43'0 0.0
2015-Apr-13 08:33N 31°22' E 121°43'22101.8
2015-Apr-13 08:21N 31°37' E 121°25'2227.4
2015-Apr-13 07:33N 31°22' E 121°43'0 0.0
2015-Apr-13 06:33N 31°22' E 121°43'22334.0
2015-Apr-13 06:29N 31°37' E 121°25'2223.4
2015-Apr-13 05:33N 31°22' E 121°43'22472.8
2015-Apr-13 05:31N 31°37' E 121°25'2222.8
2015-Apr-13 04:33N 31°22' E 121°43'221706.2
2015-Apr-13 04:33N 31°37' E 121°25'2222.1
2015-Apr-13 03:33N 31°22' E 121°43'2211210.3
2015-Apr-13 03:33N 31°37' E 121°25'2221.8
2015-Apr-13 02:33N 31°22' E 121°43'22124.8
2015-Apr-13 02:23N 31°37' E 121°25'2226.1
2015-Apr-13 01:33N 31°22' E 121°43'221005.9
2015-Apr-13 01:31N 31°37' E 121°25'2222.5
2015-Apr-13 00:33N 31°22' E 121°43'222121.3
2015-Apr-13 00:33N 31°37' E 121°25'2222.1
2015-Apr-12 23:33N 31°22' E 121°43'0 0.0
2015-Apr-12 22:33N 31°22' E 121°43'0 0.0
2015-Apr-12 21:33N 31°22' E 121°43'0 0.0
2015-Apr-12 20:33N 31°22' E 121°43'0 0.0
2015-Apr-12 19:33N 31°22' E 121°43'0 0.0
2015-Apr-12 18:33N 31°22' E 121°43'426523.9
2015-Apr-12 18:33N 31°06' E 120°58'4242.0
2015-Apr-12 17:33N 31°22' E 121°43'0 0.0
2015-Apr-12 16:33N 31°22' E 121°43'0 0.0
2015-Apr-12 15:33N 31°22' E 121°43'37454.9
2015-Apr-12 15:28N 30°59' E 121°09'3740.4
2015-Apr-12 14:33N 31°22' E 121°43'3572.2
2015-Apr-12 14:04N 30°58' E 121°14'2 4.3
2015-Apr-12 13:33N 30°58' E 121°16'3310932.7
2015-Apr-12 13:33N 31°22' E 121°43'3029.9
2015-Apr-12 12:34N 30°59' E 121°21'305075.9
2015-Apr-12 12:33N 31°22' E 121°43'0 0.0
2015-Apr-12 11:33N 31°22' E 121°43'25434.1
2015-Apr-12 11:30N 31°01' E 121°27'2526.8
2015-Apr-12 10:33N 31°22' E 121°43'0 0.0
2015-Apr-12 09:33N 31°22' E 121°43'192266.7
2015-Apr-12 09:33N 31°09' E 121°27'1918.7
2015-Apr-12 08:33N 31°22' E 121°43'14128.3
2015-Apr-12 08:26N 31°13' E 121°30'1415.9
2015-Apr-12 07:33N 31°22' E 121°43'0 0.0
2015-Apr-12 06:33N 31°22' E 121°43'0 0.0
2015-Apr-12 05:33N 31°22' E 121°43'281264.4
2015-Apr-12 05:31N 30°59' E 121°23'2626.8
2015-Apr-12 04:33N 31°24' E 121°31'113870.7
2015-Apr-12 04:33N 31°22' E 121°43'0 0.0
2015-Apr-12 03:23N 31°22' E 121°43'0 0.0
2015-Apr-12 02:33N 31°22' E 121°43'0 0.0
2015-Apr-12 01:33N 31°22' E 121°43'0 0.0
2015-Apr-12 00:33N 31°22' E 121°43'0 0.1
2015-Apr-11 23:32N 31°22' E 121°43'30598.6
2015-Apr-11 23:29N 30°59' E 121°20'3032.6
2015-Apr-11 22:33N 31°22' E 121°43'0 0.0
2015-Apr-11 21:34N 31°22' E 121°43'0 0.0
2015-Apr-11 20:33N 31°22' E 121°43'0 0.0
2015-Apr-11 19:34N 31°22' E 121°43'0 0.0
2015-Apr-11 18:33N 31°22' E 121°43'0 0.0
2015-Apr-11 17:34N 31°22' E 121°43'0 0.0
2015-Apr-11 16:34N 31°22' E 121°43'0 0.0
2015-Apr-11 15:33N 31°22' E 121°43'0 0.0
2015-Apr-11 14:32N 31°22' E 121°43'0 0.0
2015-Apr-11 13:33N 31°22' E 121°43'0 0.0
2015-Apr-11 12:33N 31°22' E 121°43'2472.5
2015-Apr-11 12:14N 31°01' E 121°29'2434.7
2015-Apr-11 11:32N 31°22' E 121°43'4242036.2
2015-Apr-11 11:20N 24°47' E 118°46'424549.1
2015-Apr-11 10:33N 31°22' E 121°43'194483.1
2015-Apr-11 10:33N 31°09' E 121°27'1918.8
2015-Apr-11 09:33N 31°22' E 121°43'0 0.1
2015-Apr-11 08:33N 31°22' E 121°43'0 0.0
2015-Apr-11 07:33N 31°22' E 121°43'0 0.0
2015-Apr-11 06:33N 31°22' E 121°43'0 0.0
2015-Apr-11 05:33N 31°22' E 121°43'0 0.0
2015-Apr-11 04:33N 31°22' E 121°43'114391.7
2015-Apr-11 04:33N 31°12' E 121°50'1111.0
2015-Apr-11 03:33N 31°22' E 121°43'161529.9
2015-Apr-11 03:33N 31°09' E 121°55'1616.2
2015-Apr-11 02:33N 31°22' E 121°43'0 0.0
2015-Apr-11 01:33N 31°22' E 121°43'0 0.0
2015-Apr-11 00:33N 31°22' E 121°43'0 0.0
2015-Apr-10 23:33N 31°22' E 121°43'0 0.0
2015-Apr-10 22:33N 31°22' E 121°43'0 0.0
2015-Apr-10 21:33N 31°22' E 121°43'0 0.0
2015-Apr-10 20:33N 31°22' E 121°43'0 0.0
2015-Apr-10 19:33N 31°22' E 121°43'0 0.0
2015-Apr-10 18:33N 31°22' E 121°43'0 0.0
2015-Apr-10 17:33N 31°22' E 121°43'0 0.0
2015-Apr-10 16:33N 31°22' E 121°43'0 0.0
2015-Apr-10 15:33N 31°22' E 121°43'0 0.0
2015-Apr-10 14:33N 31°22' E 121°43'0 0.0
2015-Apr-10 13:33N 31°22' E 121°43'0 0.0
2015-Apr-10 12:33N 31°22' E 121°43'0 0.0
2015-Apr-10 11:33N 31°22' E 121°43'1 1.1
2015-Apr-10 10:33N 31°21' E 121°44'3 2.7
2015-Apr-10 09:33N 31°19' E 121°47'0 0.0
2015-Apr-10 08:33N 31°19' E 121°47'0 0.0
2015-Apr-10 07:33N 31°19' E 121°47'0 0.0
2015-Apr-10 06:33N 31°19' E 121°47'0 0.0
2015-Apr-10 05:33N 31°19' E 121°47'0 0.0
2015-Apr-10 04:33N 31°19' E 121°47'0 0.0
2015-Apr-10 03:33N 31°19' E 121°47'0 0.0
2015-Apr-10 02:33N 31°19' E 121°47'18481.4
2015-Apr-10 02:30N 31°10' E 121°28'1819.2
2015-Apr-10 01:33N 31°19' E 121°47'0 0.0
2015-Apr-10 00:33N 31°19' E 121°47'28174.2
2015-Apr-10 00:24N 30°59' E 121°23'2833.2
2015-Apr-09 23:33N 31°19' E 121°47'0 0.0
2015-Apr-09 22:33N 31°19' E 121°47'0 0.0
2015-Apr-09 21:33N 31°19' E 121°47'0 0.0
2015-Apr-09 20:33N 31°19' E 121°47'0 0.0
2015-Apr-09 19:33N 31°19' E 121°47'0 0.0
2015-Apr-09 18:33N 31°19' E 121°47'0 0.0
2015-Apr-09 17:33N 31°19' E 121°47'0 0.0
2015-Apr-09 16:33N 31°19' E 121°47'0 0.0
2015-Apr-09 15:33N 31°19' E 121°47'0 0.0
2015-Apr-09 14:33N 31°19' E 121°47'0 0.0
2015-Apr-09 13:33N 31°19' E 121°47'0 0.0
2015-Apr-09 12:33N 31°19' E 121°47'0 0.0
2015-Apr-09 11:33N 31°19' E 121°47'0 0.0
2015-Apr-09 10:33N 31°19' E 121°47'0 0.0
2015-Apr-09 09:34N 31°19' E 121°47'4 3.8
2015-Apr-09 08:33N 31°22' E 121°43'0 0.0
2015-Apr-09 07:33N 31°22' E 121°43'0 0.0
2015-Apr-09 06:33N 31°22' E 121°43'0 0.0
2015-Apr-09 05:33N 31°22' E 121°43'0 0.0
2015-Apr-09 04:33N 31°22' E 121°43'0 0.1
2015-Apr-09 03:33N 31°22' E 121°43'2 2.1
2015-Apr-09 02:33N 31°20' E 121°45'2 1.8
2015-Apr-09 01:33N 31°19' E 121°47'0 0.0
2015-Apr-09 00:33N 31°19' E 121°47'0 0.0
2015-Apr-08 23:33N 31°19' E 121°47'0 0.0
2015-Apr-08 22:33N 31°19' E 121°47'0 0.0
2015-Apr-08 21:33N 31°19' E 121°47'0 0.0
2015-Apr-08 20:33N 31°19' E 121°47'0 0.0
2015-Apr-08 19:33N 31°19' E 121°47'0 0.0
2015-Apr-08 18:33N 31°19' E 121°47'0 0.0
2015-Apr-08 17:33N 31°19' E 121°47'0 0.0
2015-Apr-08 16:33N 31°19' E 121°47'0 0.0
2015-Apr-08 15:33N 31°19' E 121°47'0 0.0
2015-Apr-08 14:33N 31°19' E 121°47'0 0.0
2015-Apr-08 13:33N 31°19' E 121°47'0 0.0
2015-Apr-08 12:33N 31°19' E 121°47'0 0.0
2015-Apr-08 11:33N 31°19' E 121°47'0 0.0
2015-Apr-08 10:33N 31°19' E 121°47'0 0.0
2015-Apr-08 09:33N 31°19' E 121°47'0 0.0
2015-Apr-08 08:33N 31°19' E 121°47'0 0.0
2015-Apr-08 07:33N 31°19' E 121°47'0 0.0
2015-Apr-08 06:33N 31°19' E 121°47'0 0.0
2015-Apr-08 05:34N 31°19' E 121°47'0 0.0
2015-Apr-08 04:33N 31°19' E 121°47'2 1.6
2015-Apr-08 03:33N 31°20' E 121°45'2 2.4
2015-Apr-08 02:33N 31°22' E 121°43'0 0.0
2015-Apr-08 01:33N 31°22' E 121°43'0 0.0
2015-Apr-08 00:33N 31°22' E 121°43'0 0.0
2015-Apr-07 23:33N 31°22' E 121°43'0 0.0
2015-Apr-07 22:34N 31°22' E 121°43'0 0.1
2015-Apr-07 21:33N 31°22' E 121°43'0 0.1
2015-Apr-07 20:33N 31°22' E 121°43'0 0.0
2015-Apr-07 19:33N 31°22' E 121°43'0 0.0
2015-Apr-07 18:33N 31°22' E 121°43'0 0.0
2015-Apr-07 17:34N 31°22' E 121°43'0 0.0
2015-Apr-07 16:33N 31°22' E 121°43'0 0.0
2015-Apr-07 15:33N 31°22' E 121°43'0 0.0
2015-Apr-07 14:33N 31°22' E 121°43'0 0.0
2015-Apr-07 13:34N 31°22' E 121°43'0 0.0
2015-Apr-07 12:34N 31°22' E 121°43'0 0.0
2015-Apr-07 11:34N 31°22' E 121°43'0 0.1
2015-Apr-07 10:33N 31°22' E 121°43'0 0.0
2015-Apr-07 09:33N 31°22' E 121°43'0 0.1
2015-Apr-07 08:33N 31°22' E 121°43'1461.2
2015-Apr-07 08:19N 31°21' E 121°27'1418.5
2015-Apr-07 07:33N 31°22' E 121°43'143030.6
2015-Apr-07 07:33N 31°21' E 121°27'1414.4
2015-Apr-07 06:34N 31°22' E 121°43'14596.9
2015-Apr-07 06:32N 31°21' E 121°27'1414.7
2015-Apr-07 05:33N 31°22' E 121°43'142060.8
2015-Apr-07 05:33N 31°21' E 121°27'4532330.5
2015-Apr-07 05:21N 24°24' E 118°07'459574.7
2015-Apr-07 04:33N 31°22' E 121°43'142711.5
2015-Apr-07 04:33N 31°21' E 121°27'1414.3
2015-Apr-07 03:33N 31°22' E 121°43'  
Track history (hours):
 
Tides and Currents Weather Stations Pressure Air Temp Water Temp Dewpoint Dewpoint Depression Visibility Wind Speed Wind Dir Waves Ship Positions

Spaceon02064

Last reported at 2015-Apr-17 03:33 UTC. Time now 2015-Apr-18 08:45 UTC.
Position N 30°59' E 121°22'.

Length 6 m.

Type: Ship. MMSI: 200902064.

Date/timePositionNaut miles runAvg speedWind from/ knotsBaromVisibWave heightAir tempDewpointWater temp
2015-Apr-17 03:33N 30°59' E 121°22'39717.2
2015-Apr-16 04:32N 24°47' E 118°46'10 9.6
2015-Apr-16 03:28N 24°47' E 118°57'43021.5
2015-Apr-15 07:30N 31°37' E 121°25'0 0.0
2015-Apr-15 06:33N 31°37' E 121°25'0 0.0
2015-Apr-15 05:34N 31°37' E 121°25'0 0.0
2015-Apr-15 04:34N 31°37' E 121°25'385092.9
2015-Apr-15 04:33N 30°59' E 121°20'3836.0
2015-Apr-15 03:29N 31°37' E 121°25'0 0.0
2015-Apr-15 02:31N 31°37' E 121°25'2976.2
2015-Apr-15 02:08N 31°08' E 121°27'2949.4
2015-Apr-15 01:33N 31°37' E 121°25'0 0.0
2015-Apr-15 00:33N 31°37' E 121°25'22 2.4
2015-Apr-14 15:34N 31°22' E 121°43'0 0.0
2015-Apr-14 14:34N 31°22' E 121°43'0 0.0
2015-Apr-14 13:33N 31°22' E 121°43'0 0.0
2015-Apr-14 12:34N 31°22' E 121°43'0 0.0
2015-Apr-14 11:33N 31°22' E 121°43'0 0.0
2015-Apr-14 10:34N 31°22' E 121°43'22159.5
2015-Apr-14 10:25N 31°37' E 121°25'2225.4
2015-Apr-14 09:34N 31°22' E 121°43'22751.9
2015-Apr-14 09:32N 31°37' E 121°25'2222.5
2015-Apr-14 08:33N 31°22' E 121°43'22626.5
2015-Apr-14 08:31N 31°37' E 121°25'2222.7
2015-Apr-14 07:33N 31°22' E 121°43'2271.1
2015-Apr-14 07:15N 31°37' E 121°25'2231.6
2015-Apr-14 06:34N 31°22' E 121°43'22577.1
2015-Apr-14 06:31N 31°37' E 121°25'2222.7
2015-Apr-14 05:34N 31°22' E 121°43'22112.9
2015-Apr-14 05:22N 31°37' E 121°25'2227.0
2015-Apr-14 04:34N 31°22' E 121°43'0 0.0
2015-Apr-14 03:34N 31°22' E 121°43'135313.7
2015-Apr-14 03:33N 31°10' E 121°51'35409.0
2015-Apr-14 03:28N 31°37' E 121°25'2223.9
2015-Apr-14 02:34N 31°22' E 121°43'222308.4
2015-Apr-14 02:33N 31°37' E 121°25'2221.9
2015-Apr-14 01:33N 31°22' E 121°43'22545.1
2015-Apr-14 01:31N 31°37' E 121°25'2222.8
2015-Apr-14 00:34N 31°22' E 121°43'221046.5
2015-Apr-14 00:32N 31°37' E 121°25'2222.2
2015-Apr-13 23:33N 31°22' E 121°43'221744.2
2015-Apr-13 23:33N 31°37' E 121°25'2222.1
2015-Apr-13 22:33N 31°22' E 121°43'2215697.5
2015-Apr-13 22:33N 31°37' E 121°25'2221.9
2015-Apr-13 21:34N 31°22' E 121°43'0 0.0
2015-Apr-13 20:34N 31°22' E 121°43'0 0.0
2015-Apr-13 19:33N 31°22' E 121°43'0 0.0
2015-Apr-13 18:34N 31°22' E 121°43'0 0.0
2015-Apr-13 17:34N 31°22' E 121°43'0 0.0
2015-Apr-13 16:33N 31°22' E 121°43'0 0.0
2015-Apr-13 15:33N 31°22' E 121°43'0 0.0
2015-Apr-13 14:33N 31°22' E 121°43'0 0.0
2015-Apr-13 13:34N 31°22' E 121°43'0 0.0
2015-Apr-13 12:34N 31°22' E 121°43'0 0.0
2015-Apr-13 11:33N 31°22' E 121°43'0 0.0
2015-Apr-13 10:33N 31°22' E 121°43'0 0.0
2015-Apr-13 09:33N 31°22' E 121°43'0 0.0
2015-Apr-13 08:33N 31°22' E 121°43'22101.8
2015-Apr-13 08:21N 31°37' E 121°25'2227.4
2015-Apr-13 07:33N 31°22' E 121°43'0 0.0
2015-Apr-13 06:33N 31°22' E 121°43'22334.0
2015-Apr-13 06:29N 31°37' E 121°25'2223.4
2015-Apr-13 05:33N 31°22' E 121°43'22472.8
2015-Apr-13 05:31N 31°37' E 121°25'2222.8
2015-Apr-13 04:33N 31°22' E 121°43'221706.2
2015-Apr-13 04:33N 31°37' E 121°25'2222.1
2015-Apr-13 03:33N 31°22' E 121°43'2211210.3
2015-Apr-13 03:33N 31°37' E 121°25'2221.8
2015-Apr-13 02:33N 31°22' E 121°43'22124.8
2015-Apr-13 02:23N 31°37' E 121°25'2226.1
2015-Apr-13 01:33N 31°22' E 121°43'221005.9
2015-Apr-13 01:31N 31°37' E 121°25'2222.5
2015-Apr-13 00:33N 31°22' E 121°43'222121.3
2015-Apr-13 00:33N 31°37' E 121°25'2222.1
2015-Apr-12 23:33N 31°22' E 121°43'0 0.0
2015-Apr-12 22:33N 31°22' E 121°43'0 0.0
2015-Apr-12 21:33N 31°22' E 121°43'0 0.0
2015-Apr-12 20:33N 31°22' E 121°43'0 0.0
2015-Apr-12 19:33N 31°22' E 121°43'0 0.0
2015-Apr-12 18:33N 31°22' E 121°43'426523.9
2015-Apr-12 18:33N 31°06' E 120°58'4242.0
2015-Apr-12 17:33N 31°22' E 121°43'0 0.0
2015-Apr-12 16:33N 31°22' E 121°43'0 0.0
2015-Apr-12 15:33N 31°22' E 121°43'37454.9
2015-Apr-12 15:28N 30°59' E 121°09'3740.4
2015-Apr-12 14:33N 31°22' E 121°43'3572.2
2015-Apr-12 14:04N 30°58' E 121°14'2 4.3
2015-Apr-12 13:33N 30°58' E 121°16'3310932.7
2015-Apr-12 13:33N 31°22' E 121°43'3029.9
2015-Apr-12 12:34N 30°59' E 121°21'305075.9
2015-Apr-12 12:33N 31°22' E 121°43'0 0.0
2015-Apr-12 11:33N 31°22' E 121°43'25434.1
2015-Apr-12 11:30N 31°01' E 121°27'2526.8
2015-Apr-12 10:33N 31°22' E 121°43'0 0.0
2015-Apr-12 09:33N 31°22' E 121°43'192266.7
2015-Apr-12 09:33N 31°09' E 121°27'1918.7
2015-Apr-12 08:33N 31°22' E 121°43'14128.3
2015-Apr-12 08:26N 31°13' E 121°30'1415.9
2015-Apr-12 07:33N 31°22' E 121°43'0 0.0
2015-Apr-12 06:33N 31°22' E 121°43'0 0.0
2015-Apr-12 05:33N 31°22' E 121°43'281264.4
2015-Apr-12 05:31N 30°59' E 121°23'2626.8
2015-Apr-12 04:33N 31°24' E 121°31'113870.7
2015-Apr-12 04:33N 31°22' E 121°43'0 0.0
2015-Apr-12 03:23N 31°22' E 121°43'0 0.0
2015-Apr-12 02:33N 31°22' E 121°43'0 0.0
2015-Apr-12 01:33N 31°22' E 121°43'0 0.0
2015-Apr-12 00:33N 31°22' E 121°43'0 0.1
2015-Apr-11 23:32N 31°22' E 121°43'30598.6
2015-Apr-11 23:29N 30°59' E 121°20'3032.6
2015-Apr-11 22:33N 31°22' E 121°43'0 0.0
2015-Apr-11 21:34N 31°22' E 121°43'0 0.0
2015-Apr-11 20:33N 31°22' E 121°43'0 0.0
2015-Apr-11 19:34N 31°22' E 121°43'0 0.0
2015-Apr-11 18:33N 31°22' E 121°43'0 0.0
2015-Apr-11 17:34N 31°22' E 121°43'0 0.0
2015-Apr-11 16:34N 31°22' E 121°43'0 0.0
2015-Apr-11 15:33N 31°22' E 121°43'0 0.0
2015-Apr-11 14:32N 31°22' E 121°43'0 0.0
2015-Apr-11 13:33N 31°22' E 121°43'0 0.0
2015-Apr-11 12:33N 31°22' E 121°43'2472.5
2015-Apr-11 12:14N 31°01' E 121°29'2434.7
2015-Apr-11 11:32N 31°22' E 121°43'4242036.2
2015-Apr-11 11:20N 24°47' E 118°46'424549.1
2015-Apr-11 10:33N 31°22' E 121°43'194483.1
2015-Apr-11 10:33N 31°09' E 121°27'1918.8
2015-Apr-11 09:33N 31°22' E 121°43'0 0.1
2015-Apr-11 08:33N 31°22' E 121°43'0 0.0
2015-Apr-11 07:33N 31°22' E 121°43'0 0.0
2015-Apr-11 06:33N 31°22' E 121°43'0 0.0
2015-Apr-11 05:33N 31°22' E 121°43'0 0.0
2015-Apr-11 04:33N 31°22' E 121°43'114391.7
2015-Apr-11 04:33N 31°12' E 121°50'1111.0
2015-Apr-11 03:33N 31°22' E 121°43'161529.9
2015-Apr-11 03:33N 31°09' E 121°55'1616.2
2015-Apr-11 02:33N 31°22' E 121°43'0 0.0
2015-Apr-11 01:33N 31°22' E 121°43'0 0.0
2015-Apr-11 00:33N 31°22' E 121°43'0 0.0
2015-Apr-10 23:33N 31°22' E 121°43'0 0.0
2015-Apr-10 22:33N 31°22' E 121°43'0 0.0
2015-Apr-10 21:33N 31°22' E 121°43'0 0.0
2015-Apr-10 20:33N 31°22' E 121°43'0 0.0
2015-Apr-10 19:33N 31°22' E 121°43'0 0.0
2015-Apr-10 18:33N 31°22' E 121°43'0 0.0
2015-Apr-10 17:33N 31°22' E 121°43'0 0.0
2015-Apr-10 16:33N 31°22' E 121°43'0 0.0
2015-Apr-10 15:33N 31°22' E 121°43'0 0.0
2015-Apr-10 14:33N 31°22' E 121°43'0 0.0
2015-Apr-10 13:33N 31°22' E 121°43'0 0.0
2015-Apr-10 12:33N 31°22' E 121°43'0 0.0
2015-Apr-10 11:33N 31°22' E 121°43'1 1.1
2015-Apr-10 10:33N 31°21' E 121°44'3 2.7
2015-Apr-10 09:33N 31°19' E 121°47'0 0.0
2015-Apr-10 08:33N 31°19' E 121°47'0 0.0
2015-Apr-10 07:33N 31°19' E 121°47'0 0.0
2015-Apr-10 06:33N 31°19' E 121°47'0 0.0
2015-Apr-10 05:33N 31°19' E 121°47'0 0.0
2015-Apr-10 04:33N 31°19' E 121°47'0 0.0
2015-Apr-10 03:33N 31°19' E 121°47'0 0.0
2015-Apr-10 02:33N 31°19' E 121°47'18481.4
2015-Apr-10 02:30N 31°10' E 121°28'1819.2
2015-Apr-10 01:33N 31°19' E 121°47'0 0.0
2015-Apr-10 00:33N 31°19' E 121°47'28174.2
2015-Apr-10 00:24N 30°59' E 121°23'2833.2
2015-Apr-09 23:33N 31°19' E 121°47'0 0.0
2015-Apr-09 22:33N 31°19' E 121°47'0 0.0
2015-Apr-09 21:33N 31°19' E 121°47'0 0.0
2015-Apr-09 20:33N 31°19' E 121°47'0 0.0
2015-Apr-09 19:33N 31°19' E 121°47'0 0.0
2015-Apr-09 18:33N 31°19' E 121°47'0 0.0
2015-Apr-09 17:33N 31°19' E 121°47'0 0.0
2015-Apr-09 16:33N 31°19' E 121°47'0 0.0
2015-Apr-09 15:33N 31°19' E 121°47'0 0.0
2015-Apr-09 14:33N 31°19' E 121°47'0 0.0
2015-Apr-09 13:33N 31°19' E 121°47'0 0.0
2015-Apr-09 12:33N 31°19' E 121°47'0 0.0
2015-Apr-09 11:33N 31°19' E 121°47'0 0.0
2015-Apr-09 10:33N 31°19' E 121°47'0 0.0
2015-Apr-09 09:34N 31°19' E 121°47'4 3.8
2015-Apr-09 08:33N 31°22' E 121°43'0 0.0
2015-Apr-09 07:33N 31°22' E 121°43'0 0.0
2015-Apr-09 06:33N 31°22' E 121°43'0 0.0
2015-Apr-09 05:33N 31°22' E 121°43'0 0.0
2015-Apr-09 04:33N 31°22' E 121°43'0 0.1
2015-Apr-09 03:33N 31°22' E 121°43'2 2.1
2015-Apr-09 02:33N 31°20' E 121°45'2 1.8
2015-Apr-09 01:33N 31°19' E 121°47'0 0.0
2015-Apr-09 00:33N 31°19' E 121°47'0 0.0
2015-Apr-08 23:33N 31°19' E 121°47'0 0.0
2015-Apr-08 22:33N 31°19' E 121°47'0 0.0
2015-Apr-08 21:33N 31°19' E 121°47'0 0.0
2015-Apr-08 20:33N 31°19' E 121°47'0 0.0
2015-Apr-08 19:33N 31°19' E 121°47'0 0.0
2015-Apr-08 18:33N 31°19' E 121°47'0 0.0
2015-Apr-08 17:33N 31°19' E 121°47'0 0.0
2015-Apr-08 16:33N 31°19' E 121°47'0 0.0
2015-Apr-08 15:33N 31°19' E 121°47'0 0.0
2015-Apr-08 14:33N 31°19' E 121°47'0 0.0
2015-Apr-08 13:33N 31°19' E 121°47'0 0.0
2015-Apr-08 12:33N 31°19' E 121°47'0 0.0
2015-Apr-08 11:33N 31°19' E 121°47'0 0.0
2015-Apr-08 10:33N 31°19' E 121°47'0 0.0
2015-Apr-08 09:33N 31°19' E 121°47'0 0.0
2015-Apr-08 08:33N 31°19' E 121°47'0 0.0
2015-Apr-08 07:33N 31°19' E 121°47'0 0.0
2015-Apr-08 06:33N 31°19' E 121°47'0 0.0
2015-Apr-08 05:34N 31°19' E 121°47'0 0.0
2015-Apr-08 04:33N 31°19' E 121°47'2 1.6
2015-Apr-08 03:33N 31°20' E 121°45'2 2.4
2015-Apr-08 02:33N 31°22' E 121°43'0 0.0
2015-Apr-08 01:33N 31°22' E 121°43'0 0.0
2015-Apr-08 00:33N 31°22' E 121°43'0 0.0
2015-Apr-07 23:33N 31°22' E 121°43'0 0.0
2015-Apr-07 22:34N 31°22' E 121°43'0 0.1
2015-Apr-07 21:33N 31°22' E 121°43'0 0.1
2015-Apr-07 20:33N 31°22' E 121°43'0 0.0
2015-Apr-07 19:33N 31°22' E 121°43'0 0.0
2015-Apr-07 18:33N 31°22' E 121°43'0 0.0
2015-Apr-07 17:34N 31°22' E 121°43'0 0.0
2015-Apr-07 16:33N 31°22' E 121°43'0 0.0
2015-Apr-07 15:33N 31°22' E 121°43'0 0.0
2015-Apr-07 14:33N 31°22' E 121°43'0 0.0
2015-Apr-07 13:34N 31°22' E 121°43'0 0.0
2015-Apr-07 12:34N 31°22' E 121°43'0 0.0
2015-Apr-07 11:34N 31°22' E 121°43'0 0.1
2015-Apr-07 10:33N 31°22' E 121°43'0 0.0
2015-Apr-07 09:33N 31°22' E 121°43'0 0.1
2015-Apr-07 08:33N 31°22' E 121°43'1461.2
2015-Apr-07 08:19N 31°21' E 121°27'1418.5
2015-Apr-07 07:33N 31°22' E 121°43'143030.6
2015-Apr-07 07:33N 31°21' E 121°27'1414.4
2015-Apr-07 06:34N 31°22' E 121°43'14596.9
2015-Apr-07 06:32N 31°21' E 121°27'1414.7
2015-Apr-07 05:33N 31°22' E 121°43'142060.8
2015-Apr-07 05:33N 31°21' E 121°27'4532330.5
2015-Apr-07 05:21N 24°24' E 118°07'459574.7
2015-Apr-07 04:33N 31°22' E 121°43'142711.5
2015-Apr-07 04:33N 31°21' E 121°27'1414.3
2015-Apr-07 03:33N 31°22' E 121°43'  

Dump ship's entire track history